Time;durP1;ratioP1;P1;durP2;ratioP2;P2;SDS_P1;SDS_P2;PMS_P1;PMS_P2;Temp;Humidity;BMP_temperature;BMP_pressure;BME280_temperature;BME280_humidity;BME280_pressure;Samples;Min_cycle;Max_cycle;Signal;HPM_P1;HPM_P2
2020/12/22 00:00:45;;;;;;;40.80;17.20;;;;;;;1.87;75.63;102674.39;1792124;80;25426;-57
2020/12/22 00:03:13;;;;;;;36.13;16.90;;;;;;;1.87;75.91;102671.73;1812187;77;25556;-57
2020/12/22 00:05:41;;;;;;;34.58;17.00;;;;;;;1.87;75.92;102671.73;1826624;77;26083;-58
2020/12/22 00:08:11;;;;;;;33.45;16.42;;;;;;;1.87;76.00;102672.20;1792244;80;26791;-58
2020/12/22 00:10:39;;;;;;;30.88;16.42;;;;;;;1.92;76.28;102670.77;1792252;78;25641;-58
2020/12/22 00:13:07;;;;;;;35.63;16.55;;;;;;;1.94;76.23;102668.94;1792173;80;25681;-58
2020/12/22 00:15:35;;;;;;;39.35;16.67;;;;;;;1.96;76.47;102667.13;1792758;78;25728;-58
2020/12/22 00:18:04;;;;;;;34.65;16.23;;;;;;;1.96;76.11;102670.67;1791839;78;26148;-58
2020/12/22 00:20:32;;;;;;;40.20;16.50;;;;;;;1.97;76.17;102671.06;1801725;78;28957;-57
2020/12/22 00:23:00;;;;;;;39.13;16.32;;;;;;;2.01;76.21;102666.59;1824537;78;25658;-58
2020/12/22 00:25:28;;;;;;;30.85;14.68;;;;;;;1.99;76.26;102666.61;1816368;78;25661;-58
2020/12/22 00:27:56;;;;;;;31.42;15.55;;;;;;;1.97;76.00;102667.09;1792149;79;26516;-58
2020/12/22 00:30:24;;;;;;;33.58;16.25;;;;;;;1.99;76.37;102673.24;1792153;80;25705;-58
2020/12/22 00:32:52;;;;;;;28.27;14.83;;;;;;;1.98;76.11;102671.96;1792059;80;27599;-58
2020/12/22 00:35:20;;;;;;;37.10;15.83;;;;;;;2.02;76.45;102674.95;1792204;78;26081;-58
2020/12/22 00:37:47;;;;;;;32.60;15.38;;;;;;;2.09;76.77;102669.05;1792118;79;25730;-58
2020/12/22 00:40:15;;;;;;;30.62;14.70;;;;;;;2.18;76.68;102678.14;1805299;78;25716;-58
2020/12/22 00:42:43;;;;;;;31.15;14.58;;;;;;;2.27;76.60;102670.44;1817366;77;26140;-58
2020/12/22 00:45:12;;;;;;;36.20;17.45;;;;;;;2.29;76.38;102661.95;1826744;78;27593;-58
2020/12/22 00:47:40;;;;;;;35.48;15.80;;;;;;;2.39;76.30;102663.48;1824741;78;26552;-58
2020/12/22 00:50:08;;;;;;;31.23;14.98;;;;;;;2.42;75.87;102662.09;1818472;78;25954;-58
2020/12/22 00:52:36;;;;;;;30.80;15.63;;;;;;;2.41;74.74;102665.66;1794129;78;25746;-58
2020/12/22 00:55:05;;;;;;;33.85;15.98;;;;;;;2.30;74.77;102665.92;1770316;79;26147;-58
2020/12/22 00:57:35;;;;;;;36.60;15.85;;;;;;;2.19;75.03;102668.84;1770113;81;28435;-58
2020/12/22 01:00:13;;;;;;;35.78;16.95;;;;;;;2.19;75.25;102670.16;1791205;78;26180;-58
2020/12/22 01:02:41;;;;;;;34.60;16.30;;;;;;;2.15;75.15;102669.80;1753758;81;25793;-58
2020/12/22 01:05:09;;;;;;;37.80;16.37;;;;;;;2.11;75.64;102669.91;1826925;78;26390;-58
2020/12/22 01:07:37;;;;;;;32.73;15.48;;;;;;;2.06;75.76;102669.14;1770192;81;25660;-58
2020/12/22 01:10:05;;;;;;;31.40;14.95;;;;;;;2.03;75.71;102670.06;1770091;81;27973;-57
2020/12/22 01:12:33;;;;;;;35.65;14.35;;;;;;;2.01;75.85;102674.55;1735502;82;25612;-57
2020/12/22 01:15:02;;;;;;;34.90;16.37;;;;;;;2.03;76.17;102660.77;1750107;80;25461;-57
2020/12/22 01:17:30;;;;;;;37.03;15.03;;;;;;;2.05;76.22;102663.41;1736607;81;25826;-58
2020/12/22 01:19:58;;;;;;;35.58;16.00;;;;;;;2.01;76.07;102663.94;1738061;81;25524;-58
2020/12/22 01:22:26;;;;;;;42.13;18.27;;;;;;;2.02;76.61;102668.31;1766134;81;26704;-58
2020/12/22 01:24:54;;;;;;;36.83;16.75;;;;;;;2.02;76.34;102664.33;1765857;81;26074;-58
2020/12/22 01:27:22;;;;;;;32.35;16.82;;;;;;;2.06;76.59;102659.85;1763626;79;25525;-58
2020/12/22 01:29:50;;;;;;;31.82;16.15;;;;;;;2.07;76.30;102665.12;1765739;81;25976;-58
2020/12/22 01:32:18;;;;;;;33.35;14.93;;;;;;;2.15;76.72;102656.52;1735690;82;26548;-58
2020/12/22 01:34:46;;;;;;;29.32;13.30;;;;;;;2.28;77.06;102665.08;1765840;81;27535;-58
2020/12/22 01:37:13;;;;;;;33.98;15.43;;;;;;;2.36;76.49;102666.23;1741084;79;25695;-58
2020/12/22 01:39:42;;;;;;;30.50;15.32;;;;;;;2.42;76.19;102666.55;1736682;81;25664;-58
2020/12/22 01:42:10;;;;;;;36.58;16.02;;;;;;;2.45;76.01;102667.78;1733821;81;25649;-58
2020/12/22 01:44:39;;;;;;;30.57;14.10;;;;;;;2.45;75.41;102662.47;1785784;79;25700;-58
2020/12/22 01:47:09;;;;;;;38.38;16.45;;;;;;;2.45;75.45;102662.03;1779917;79;27578;-58
2020/12/22 01:49:37;;;;;;;35.90;15.60;;;;;;;2.43;74.86;102661.19;1783434;79;25711;-58
2020/12/22 01:52:05;;;;;;;35.55;16.67;;;;;;;2.34;74.84;102658.75;1793588;79;25689;-58
2020/12/22 01:54:32;;;;;;;37.78;16.17;;;;;;;2.28;74.87;102658.44;1794454;79;25958;-58
2020/12/22 01:57:11;;;;;;;41.33;16.55;;;;;;;2.16;75.13;102651.64;1809305;78;26052;-59
2020/12/22 01:59:39;;;;;;;44.10;16.67;;;;;;;2.01;75.28;102647.54;1792859;78;28490;-58
2020/12/22 02:02:08;;;;;;;34.40;15.75;;;;;;;1.96;75.39;102644.13;1797484;79;25730;-58
2020/12/22 02:04:36;;;;;;;37.60;16.60;;;;;;;1.92;75.49;102642.44;1780839;80;25644;-58
2020/12/22 02:07:05;;;;;;;36.80;16.48;;;;;;;1.94;75.74;102643.72;1780697;80;26925;-56
2020/12/22 02:09:33;;;;;;;34.15;15.72;;;;;;;1.92;75.82;102644.23;1780995;79;25457;-58
2020/12/22 02:12:03;;;;;;;41.80;17.25;;;;;;;1.91;76.09;102641.16;1786785;78;28893;-58
2020/12/22 02:14:31;;;;;;;33.85;16.05;;;;;;;1.85;76.17;102635.05;1783019;79;25675;-58
2020/12/22 02:17:00;;;;;;;38.70;15.70;;;;;;;1.86;76.33;102643.44;1787472;78;25680;-58
2020/12/22 02:19:28;;;;;;;35.25;16.05;;;;;;;1.82;76.36;102636.47;1794802;79;25687;-58
2020/12/22 02:21:56;;;;;;;36.58;16.45;;;;;;;1.79;76.46;102637.85;1781057;79;26192;-58
2020/12/22 02:24:24;;;;;;;32.48;15.03;;;;;;;1.76;76.38;102641.89;1782474;78;27384;-58
2020/12/22 02:26:52;;;;;;;33.70;15.95;;;;;;;1.73;76.09;102640.65;1813100;78;25694;-58
2020/12/22 02:29:20;;;;;;;36.80;14.33;;;;;;;1.68;76.03;102631.89;1802479;78;25709;-58
2020/12/22 02:31:47;;;;;;;33.13;14.75;;;;;;;1.61;76.02;102636.91;1812642;79;25665;-58
2020/12/22 02:34:15;;;;;;;33.90;16.00;;;;;;;1.54;75.98;102641.47;1812959;79;25611;-58
2020/12/22 02:36:43;;;;;;;34.80;15.23;;;;;;;1.52;76.10;102640.19;1805406;78;28414;-58
2020/12/22 02:39:12;;;;;;;35.08;13.85;;;;;;;1.45;76.02;102641.22;1780799;79;25750;-57
2020/12/22 02:41:40;;;;;;;35.23;14.90;;;;;;;1.39;75.95;102634.26;1799018;79;25722;-57
2020/12/22 02:44:08;;;;;;;32.25;15.00;;;;;;;1.35;75.91;102638.33;1800642;78;25702;-58
2020/12/22 02:46:36;;;;;;;36.65;16.75;;;;;;;1.33;76.07;102638.36;1740348;81;25631;-58
2020/12/22 02:49:04;;;;;;;31.10;15.10;;;;;;;1.31;76.06;102637.95;1811669;79;27539;-58
2020/12/22 02:51:32;;;;;;;39.33;16.50;;;;;;;1.28;76.10;102634.05;1781132;79;25671;-58
2020/12/22 02:54:00;;;;;;;43.30;17.98;;;;;;;1.22;76.15;102633.25;1801547;79;25600;-58
2020/12/22 02:56:30;;;;;;;35.80;15.65;;;;;;;1.19;76.01;102639.95;1770120;81;25527;-58
2020/12/22 02:58:59;;;;;;;39.00;15.30;;;;;;;1.11;75.99;102628.62;1793638;79;26080;-58
2020/12/22 03:01:27;;;;;;;32.73;14.73;;;;;;;1.03;76.19;102635.85;1801761;79;28999;-58
2020/12/22 03:03:54;;;;;;;40.88;15.18;;;;;;;0.97;76.30;102634.63;1801617;79;25718;-57
2020/12/22 03:06:23;;;;;;;35.33;15.70;;;;;;;0.92;76.37;102630.30;1801606;79;25750;-58
2020/12/22 03:08:51;;;;;;;34.43;16.48;;;;;;;0.84;76.87;102629.99;1801670;79;25663;-58
2020/12/22 03:11:19;;;;;;;38.63;16.10;;;;;;;0.82;76.93;102630.03;1778396;79;26291;-57
2020/12/22 03:13:47;;;;;;;38.30;16.10;;;;;;;0.80;77.10;102629.64;1788512;80;27531;-58
2020/12/22 03:16:18;;;;;;;40.12;16.85;;;;;;;0.75;77.39;102631.05;1788445;80;25743;-56
2020/12/22 03:18:46;;;;;;;36.93;17.37;;;;;;;0.73;77.33;102620.92;1788553;79;25720;-59
2020/12/22 03:21:16;;;;;;;34.35;16.30;;;;;;;0.74;77.49;102621.34;1788586;79;25660;-58
2020/12/22 03:23:44;;;;;;;34.70;15.53;;;;;;;0.73;77.42;102631.05;1788553;80;26068;-58
2020/12/22 03:26:12;;;;;;;37.35;16.73;;;;;;;0.76;77.28;102615.11;1788438;80;27521;-58
2020/12/22 03:28:40;;;;;;;36.03;16.50;;;;;;;0.77;77.37;102622.16;1788409;80;26169;-58
2020/12/22 03:31:08;;;;;;;38.50;16.05;;;;;;;0.78;77.41;102623.92;1788529;80;25748;-58
2020/12/22 03:33:35;;;;;;;36.93;16.48;;;;;;;0.82;77.29;102627.38;1788543;79;25633;-58
2020/12/22 03:36:04;;;;;;;36.35;16.05;;;;;;;0.82;77.24;102630.03;1788561;80;26144;-58
2020/12/22 03:38:33;;;;;;;37.73;16.75;;;;;;;0.82;77.34;102626.48;1788499;80;28509;-58
2020/12/22 03:41:00;;;;;;;43.02;17.40;;;;;;;0.81;77.08;102621.66;1783579;79;25718;-58
2020/12/22 03:43:28;;;;;;;34.65;16.90;;;;;;;0.78;77.00;102623.02;1810303;79;25734;-58
2020/12/22 03:45:57;;;;;;;34.98;17.15;;;;;;;0.72;76.93;102625.79;1810199;79;25610;-58
2020/12/22 03:48:25;;;;;;;44.55;18.60;;;;;;;0.67;76.98;102619.71;1776892;79;25662;-58
2020/12/22 03:50:54;;;;;;;45.38;17.70;;;;;;;0.62;77.07;102628.59;1770027;80;27526;-58
2020/12/22 03:53:22;;;;;;;40.80;18.40;;;;;;;0.56;77.21;102630.03;1769926;80;25688;-58
2020/12/22 03:55:50;;;;;;;38.02;17.60;;;;;;;0.55;77.59;102632.69;1770099;81;25608;-58
2020/12/22 03:58:18;;;;;;;42.35;18.37;;;;;;;0.56;77.48;102630.47;1770136;81;25687;-58
2020/12/22 04:00:45;;;;;;;36.55;16.85;;;;;;;0.53;77.50;102637.16;1770023;80;25707;-58
2020/12/22 04:03:14;;;;;;;43.10;17.45;;;;;;;0.53;77.70;102629.22;1785120;78;28483;-57
2020/12/22 04:05:41;;;;;;;44.73;18.15;;;;;;;0.54;77.53;102623.02;1765815;81;25740;-58
2020/12/22 04:08:10;;;;;;;39.10;17.92;;;;;;;0.51;77.76;102620.41;1757440;81;25696;-58
2020/12/22 04:10:39;;;;;;;42.73;17.90;;;;;;;0.51;77.68;102620.41;1735569;82;26061;-58
2020/12/22 04:13:07;;;;;;;49.95;18.95;;;;;;;0.49;77.84;102621.77;1735528;82;25712;-58
2020/12/22 04:15:35;;;;;;;43.05;18.02;;;;;;;0.52;77.87;102620.84;1735565;82;28488;-58
2020/12/22 04:18:03;;;;;;;41.42;17.17;;;;;;;0.49;77.92;102612.50;1735615;82;26239;-58
2020/12/22 04:20:33;;;;;;;40.25;16.35;;;;;;;0.49;77.92;102615.58;1735574;82;25771;-58
2020/12/22 04:23:00;;;;;;;35.50;17.12;;;;;;;0.50;77.96;102615.55;1735680;82;25980;-58
2020/12/22 04:25:29;;;;;;;44.23;17.82;;;;;;;0.51;77.95;102621.27;1735682;82;25737;-58
2020/12/22 04:27:58;;;;;;;41.37;16.67;;;;;;;0.47;77.78;102616.95;1735615;82;28448;-58
2020/12/22 04:30:26;;;;;;;39.50;16.65;;;;;;;0.49;78.05;102624.42;1735603;82;25667;-58
2020/12/22 04:32:54;;;;;;;39.90;18.48;;;;;;;0.47;77.92;102622.23;1735578;82;25636;-58
2020/12/22 04:35:22;;;;;;;35.33;16.30;;;;;;;0.42;77.85;102618.34;1735677;82;25797;-58
2020/12/22 04:37:50;;;;;;;35.28;15.48;;;;;;;0.41;77.87;102614.38;1735672;82;25697;-58
2020/12/22 04:40:18;;;;;;;34.70;16.15;;;;;;;0.38;77.98;102619.73;1715344;83;27877;-58
2020/12/22 04:42:50;;;;;;;37.95;18.17;;;;;;;0.37;78.00;102619.31;1758497;80;25427;-57
2020/12/22 04:45:19;;;;;;;35.40;16.95;;;;;;;0.35;78.15;102617.13;1739731;82;25648;-58
2020/12/22 04:47:49;;;;;;;41.63;18.42;;;;;;;0.31;78.07;102614.52;1771756;80;26434;-58
2020/12/22 04:50:17;;;;;;;44.55;19.07;;;;;;;0.26;78.22;102619.03;1741307;81;25469;-58
2020/12/22 04:52:47;;;;;;;41.80;18.50;;;;;;;0.24;78.43;102621.28;1768019;80;27523;-58
2020/12/22 04:55:19;;;;;;;42.25;18.95;;;;;;;0.26;78.32;102627.44;1826923;78;25729;-58
2020/12/22 04:57:50;;;;;;;39.10;15.68;;;;;;;0.23;78.42;102630.12;1746036;82;25688;-58
2020/12/22 05:00:20;;;;;;;38.75;18.32;;;;;;;0.24;78.39;102629.22;1826919;78;25733;-58
2020/12/22 05:02:50;;;;;;;43.17;19.80;;;;;;;0.24;78.22;102637.16;1746234;82;25657;-58
2020/12/22 05:05:19;;;;;;;44.18;20.25;;;;;;;0.24;78.37;102641.13;1795343;78;28973;-58
2020/12/22 05:07:47;;;;;;;43.28;18.50;;;;;;;0.24;78.25;102635.84;1826898;78;25422;-58
2020/12/22 05:10:15;;;;;;;35.60;17.98;;;;;;;0.21;78.32;102638.52;1782100;78;25453;-58
2020/12/22 05:12:44;;;;;;;40.05;18.50;;;;;;;0.24;78.32;102643.78;1743772;82;26555;-58
2020/12/22 05:15:12;;;;;;;37.15;18.27;;;;;;;0.24;78.41;102646.43;1801404;78;26689;-58
2020/12/22 05:17:42;;;;;;;36.10;17.00;;;;;;;0.21;78.35;102644.71;1826874;78;27354;-58
2020/12/22 05:20:13;;;;;;;41.90;18.45;;;;;;;0.22;78.48;102631.91;1746032;82;25668;-58
2020/12/22 05:22:45;;;;;;;36.75;17.30;;;;;;;0.25;78.33;102626.54;1776899;80;25637;-58
2020/12/22 05:25:16;;;;;;;39.88;17.32;;;;;;;0.22;78.16;102631.91;1827087;78;26417;-58
2020/12/22 05:27:48;;;;;;;39.08;17.55;;;;;;;0.24;78.10;102634.05;1782669;78;26211;-58
2020/12/22 05:30:18;;;;;;;35.75;16.55;;;;;;;0.24;78.11;102622.61;1799296;77;27569;-58
2020/12/22 05:32:52;;;;;;;32.33;17.42;;;;;;;0.27;78.08;102630.05;1815986;79;25804;-57
2020/12/22 05:35:21;;;;;;;71.35;19.35;;;;;;;0.29;77.82;102620.31;1815910;79;25681;-58
2020/12/22 05:37:52;;;;;;;29.50;15.85;;;;;;;0.25;77.82;102631.84;1816098;79;25817;-59
2020/12/22 05:40:20;;;;;;;38.48;18.23;;;;;;;0.24;77.79;102628.76;1814260;79;25685;-58
2020/12/22 05:42:49;;;;;;;39.42;18.52;;;;;;;0.19;77.99;102629.29;1810195;79;27468;-58
2020/12/22 05:45:17;;;;;;;35.92;16.00;;;;;;;0.17;77.95;102630.22;1810336;79;25682;-58
2020/12/22 05:47:46;;;;;;;34.85;17.30;;;;;;;0.12;78.02;102631.15;1810267;79;25809;-59
2020/12/22 05:50:14;;;;;;;37.73;16.97;;;;;;;0.11;77.92;102628.53;1810433;79;26569;-59
2020/12/22 05:52:44;;;;;;;38.10;16.85;;;;;;;0.10;77.85;102632.08;1805858;78;25832;-59
2020/12/22 05:55:12;;;;;;;34.90;16.37;;;;;;;0.15;77.90;102634.19;1802330;78;28637;-58
2020/12/22 05:57:40;;;;;;;41.88;17.17;;;;;;;0.15;77.78;102631.55;1810221;79;26100;-59
2020/12/22 06:00:15;;;;;;;33.25;15.72;;;;;;;0.14;77.84;102639.05;1810378;79;25690;-59
2020/12/22 06:02:43;;;;;;;36.95;17.15;;;;;;;0.13;77.87;102631.58;1810282;79;26998;-58
2020/12/22 06:05:10;;;;;;;37.75;16.48;;;;;;;0.14;78.08;102639.05;1810435;79;25674;-59
2020/12/22 06:07:40;;;;;;;35.03;18.35;;;;;;;0.18;77.85;102635.94;1792996;79;27525;-59
2020/12/22 06:10:07;;;;;;;34.80;16.77;;;;;;;0.15;77.67;102632.44;1770006;81;25433;-59
2020/12/22 06:12:39;;;;;;;37.80;17.85;;;;;;;0.15;77.78;102634.19;1770088;81;25673;-59
2020/12/22 06:15:10;;;;;;;39.08;19.65;;;;;;;0.18;77.52;102638.12;1768939;81;25812;-59
2020/12/22 06:17:42;;;;;;;34.78;17.40;;;;;;;0.18;77.40;102638.12;1759069;81;26551;-58
2020/12/22 06:20:12;;;;;;;37.05;16.37;;;;;;;0.17;77.34;102637.70;1792153;79;27963;-57
2020/12/22 06:22:40;;;;;;;45.55;15.23;;;;;;;0.13;77.33;102638.66;1797415;79;26108;-59
2020/12/22 06:25:08;;;;;;;30.25;15.93;;;;;;;0.09;77.54;102641.77;1801554;79;26207;-58
2020/12/22 06:27:37;;;;;;;28.90;16.27;;;;;;;0.08;77.46;102633.86;1798284;79;25663;-58
2020/12/22 06:30:05;;;;;;;40.63;16.62;;;;;;;0.06;77.73;102635.65;1770078;80;25651;-59
2020/12/22 06:32:33;;;;;;;29.55;14.87;;;;;;;0.09;77.53;102633.83;1786748;79;27357;-59
2020/12/22 06:35:28;;;;;;;39.75;19.57;;;;;;;0.09;77.46;102636.47;1797372;79;25675;-57
2020/12/22 06:37:56;;;;;;;33.38;15.78;;;;;;;0.10;77.61;102641.34;1794087;79;25738;-57
2020/12/22 06:40:51;;;;;;;35.63;17.85;;;;;;;0.10;77.51;102628.97;1770076;79;25710;-57
2020/12/22 06:43:45;;;;;;;33.10;15.78;;;;;;;0.14;77.53;102631.11;1783114;80;25645;-58
2020/12/22 06:46:37;;;;;;;29.87;15.68;;;;;;;0.17;77.26;102628.89;1783303;80;27520;-58
2020/12/22 06:49:06;;;;;;;34.20;16.30;;;;;;;0.15;77.25;102622.28;1783226;79;25727;-58
2020/12/22 06:51:37;;;;;;;37.20;14.43;;;;;;;0.14;77.26;102630.69;1783290;80;25648;-58
2020/12/22 06:54:21;;;;;;;30.77;16.40;;;;;;;0.15;77.24;102640.37;1782988;79;26495;-58
2020/12/22 06:56:52;;;;;;;27.42;14.30;;;;;;;0.16;77.26;102633.30;1783272;80;25567;-58
2020/12/22 06:59:47;;;;;;;43.10;18.35;;;;;;;0.15;77.08;102635.08;1783343;80;28445;-58
2020/12/22 07:02:36;;;;;;;32.10;16.60;;;;;;;0.13;76.87;102630.72;1783927;79;25700;-59
2020/12/22 07:05:06;;;;;;;37.98;16.67;;;;;;;0.12;77.05;102627.17;1798900;79;25710;-58
2020/12/22 07:07:57;;;;;;;36.40;17.40;;;;;;;0.11;77.01;102630.72;1788320;79;25777;-59
2020/12/22 07:10:28;;;;;;;44.30;18.95;;;;;;;0.07;77.12;102625.06;1799413;79;25674;-58
2020/12/22 07:12:59;;;;;;;36.65;17.25;;;;;;;0.07;77.21;102633.43;1782188;79;28466;-58
2020/12/22 07:15:49;;;;;;;41.02;18.25;;;;;;;0.06;77.36;102630.36;1769970;81;25657;-58
2020/12/22 07:18:31;;;;;;;34.45;17.17;;;;;;;0.11;77.31;102629.86;1774697;79;25661;-58
2020/12/22 07:21:00;;;;;;;30.77;15.75;;;;;;;0.09;77.30;102624.56;1776313;79;25718;-58
2020/12/22 07:23:27;;;;;;;40.50;17.32;;;;;;;0.16;77.24;102622.71;1770336;79;25665;-59
2020/12/22 07:25:58;;;;;;;33.10;15.78;;;;;;;0.17;77.01;102625.78;1770136;79;28956;-59
2020/12/22 07:28:28;;;;;;;35.95;18.55;;;;;;;0.19;76.77;102619.14;1792467;79;25433;-56
2020/12/22 07:30:56;;;;;;;34.78;17.95;;;;;;;0.16;76.65;102621.39;1799269;79;25630;-58
2020/12/22 07:33:24;;;;;;;40.78;17.73;;;;;;;0.14;76.52;102631.11;1800653;79;25575;-58
2020/12/22 07:35:51;;;;;;;36.68;17.77;;;;;;;0.14;76.69;102620.53;1774627;79;25679;-58
2020/12/22 07:38:20;;;;;;;38.98;18.02;;;;;;;0.17;76.67;102620.95;1794574;79;27594;-58
2020/12/22 07:40:49;;;;;;;39.30;19.48;;;;;;;0.21;76.62;102618.23;1781735;79;25744;-56
2020/12/22 07:43:17;;;;;;;35.10;18.30;;;;;;;0.22;76.33;102625.28;1793331;79;25738;-58
2020/12/22 07:45:51;;;;;;;40.23;20.48;;;;;;;0.23;76.57;102619.06;1784325;79;25669;-59
2020/12/22 07:48:19;;;;;;;47.60;22.35;;;;;;;0.22;76.47;102629.69;1769805;80;25418;-58
2020/12/22 07:50:54;;;;;;;44.00;18.60;;;;;;;0.20;76.54;102626.19;1770120;80;27592;-58
2020/12/22 07:53:22;;;;;;;40.03;19.95;;;;;;;0.22;76.38;102632.33;1764517;80;25691;-58
2020/12/22 07:55:50;;;;;;;42.20;21.73;;;;;;;0.17;76.31;102629.76;1758864;81;25706;-58
2020/12/22 07:58:18;;;;;;;40.28;20.08;;;;;;;0.16;76.23;102635.94;1758945;81;26943;-58
2020/12/22 08:00:46;;;;;;;47.88;21.35;;;;;;;0.15;76.16;102637.73;1759010;81;25901;-58
2020/12/22 08:03:17;;;;;;;48.28;21.55;;;;;;;0.19;76.21;102625.75;1775564;78;27523;-58
2020/12/22 08:06:01;;;;;;;40.23;20.72;;;;;;;0.24;75.93;102625.25;1792738;79;26091;-58
2020/12/22 08:08:30;;;;;;;39.18;19.37;;;;;;;0.23;75.80;102623.03;1788266;80;25700;-58
2020/12/22 08:10:58;;;;;;;42.13;20.30;;;;;;;0.22;75.51;102614.70;1788581;80;26074;-59
2020/12/22 08:13:31;;;;;;;46.18;23.87;;;;;;;0.24;75.61;102626.11;1788593;79;26146;-59
2020/12/22 08:16:00;;;;;;;45.78;20.65;;;;;;;0.24;75.67;102619.49;1787775;80;28794;-59
2020/12/22 08:18:32;;;;;;;57.88;24.55;;;;;;;0.27;75.41;102619.92;1788196;80;25675;-59
2020/12/22 08:21:03;;;;;;;55.10;21.05;;;;;;;0.28;75.22;102620.31;1788539;79;25463;-59
2020/12/22 08:23:33;;;;;;;46.92;23.27;;;;;;;0.29;75.06;102610.16;1788571;80;26430;-58
2020/12/22 08:26:01;;;;;;;41.23;22.02;;;;;;;0.30;74.63;102613.23;1788576;79;26138;-58
2020/12/22 08:28:29;;;;;;;45.90;23.38;;;;;;;0.26;74.52;102615.06;1772038;79;27460;-58
2020/12/22 08:31:14;;;;;;;49.15;23.90;;;;;;;0.26;74.71;102616.84;1770320;79;26264;-58
2020/12/22 08:33:42;;;;;;;45.40;21.12;;;;;;;0.24;74.64;102609.37;1783285;79;25805;-58
2020/12/22 08:36:11;;;;;;;41.02;18.98;;;;;;;0.29;74.70;102612.38;1770208;79;25615;-58
2020/12/22 08:38:39;;;;;;;45.45;22.00;;;;;;;0.36;74.54;102609.16;1780610;79;25742;-58
2020/12/22 08:41:18;;;;;;;52.88;21.15;;;;;;;0.31;74.11;102604.39;1797753;79;28482;-58
2020/12/22 08:43:48;;;;;;;39.42;20.75;;;;;;;0.29;74.34;102612.38;1774650;78;26144;-58
2020/12/22 08:46:20;;;;;;;43.38;21.10;;;;;;;0.31;74.48;102603.08;1770236;79;25710;-58
2020/12/22 08:48:48;;;;;;;50.20;21.45;;;;;;;0.35;74.36;102603.89;1780120;79;25678;-57
2020/12/22 08:51:27;;;;;;;41.00;20.57;;;;;;;0.36;73.82;102591.08;1781155;78;26140;-58
2020/12/22 08:53:56;;;;;;;49.67;22.20;;;;;;;0.28;74.00;102596.06;1758693;81;27547;-57
2020/12/22 08:56:25;;;;;;;44.18;20.68;;;;;;;0.31;74.16;102595.13;1750582;80;25686;-58
2020/12/22 08:59:04;;;;;;;45.15;21.35;;;;;;;0.36;74.21;102589.30;1718524;83;25688;-58
2020/12/22 09:01:49;;;;;;;42.65;21.25;;;;;;;0.35;73.99;102584.93;1741354;82;26680;-58
2020/12/22 09:04:17;;;;;;;41.42;20.25;;;;;;;0.31;73.94;102577.45;1718717;82;26145;-58
2020/12/22 09:06:47;;;;;;;46.30;19.85;;;;;;;0.34;74.06;102580.53;1683830;83;29163;-56
2020/12/22 09:09:30;;;;;;;46.65;20.82;;;;;;;0.35;73.87;102569.05;1712017;83;25729;-58
2020/12/22 09:12:07;;;;;;;41.98;20.12;;;;;;;0.34;73.92;102561.11;1712308;83;25643;-58
2020/12/22 09:14:44;;;;;;;43.80;20.82;;;;;;;0.31;73.87;102560.25;1722348;81;25683;-58
2020/12/22 09:17:28;;;;;;;35.50;18.92;;;;;;;0.27;73.73;102566.52;1772693;79;26170;-57
2020/12/22 09:19:56;;;;;;;37.93;19.02;;;;;;;0.24;74.03;102557.29;1748276;81;27546;-57
2020/12/22 09:22:31;;;;;;;46.53;18.70;;;;;;;0.26;74.26;102550.20;1762005;81;26342;-57
2020/12/22 09:25:07;;;;;;;36.63;18.00;;;;;;;0.26;74.11;102544.91;1762046;81;25703;-58
2020/12/22 09:27:44;;;;;;;37.67;18.42;;;;;;;0.24;73.89;102542.73;1761896;81;25657;-57
2020/12/22 09:30:15;;;;;;;32.73;17.55;;;;;;;0.18;74.11;102536.69;1759924;79;25717;-58
2020/12/22 09:32:47;;;;;;;33.45;17.32;;;;;;;0.20;74.14;102539.73;1754592;81;27513;-59
2020/12/22 09:35:15;;;;;;;37.70;18.20;;;;;;;0.18;74.25;102545.48;1806073;79;25770;-59
2020/12/22 09:37:45;;;;;;;51.23;23.25;;;;;;;0.18;74.11;102537.55;1806031;79;25686;-59
2020/12/22 09:40:15;;;;;;;42.43;19.67;;;;;;;0.19;74.11;102535.33;1798863;79;25762;-59
2020/12/22 09:42:44;;;;;;;44.45;19.87;;;;;;;0.20;74.08;102531.78;1789508;79;25608;-58
2020/12/22 09:45:13;;;;;;;33.73;18.00;;;;;;;0.21;74.14;102526.92;1806128;79;27533;-59
2020/12/22 09:47:40;;;;;;;44.93;21.95;;;;;;;0.18;74.11;102531.39;1805910;79;25724;-60
2020/12/22 09:50:08;;;;;;;38.45;18.75;;;;;;;0.14;74.41;102527.47;1806038;79;25655;-58
2020/12/22 09:52:37;;;;;;;36.85;17.80;;;;;;;0.20;74.15;102518.98;1805926;79;25635;-59
2020/12/22 09:55:05;;;;;;;37.00;19.12;;;;;;;0.21;74.14;102520.73;1805163;78;25743;-58
2020/12/22 09:57:33;;;;;;;35.05;17.52;;;;;;;0.21;74.04;102516.33;1735262;81;27535;-59
2020/12/22 10:00:04;;;;;;;37.23;18.48;;;;;;;0.20;74.18;102506.64;1765502;81;25707;-59
2020/12/22 10:02:31;;;;;;;59.90;32.13;;;;;;;0.24;74.01;102497.73;1729261;81;25690;-59
2020/12/22 10:04:59;;;;;;;36.40;18.35;;;;;;;0.24;73.71;102494.22;1712187;83;25799;-58
2020/12/22 10:07:27;;;;;;;35.90;17.25;;;;;;;0.24;73.86;102500.84;1712566;83;25764;-59
2020/12/22 10:09:54;;;;;;;33.85;18.00;;;;;;;0.23;73.97;102489.36;1712524;83;27983;-59
2020/12/22 10:12:23;;;;;;;32.80;17.40;;;;;;;0.21;73.81;102487.65;1712532;83;26362;-59
2020/12/22 10:14:50;;;;;;;33.63;16.67;;;;;;;0.22;73.99;102497.34;1712438;83;25717;-59
2020/12/22 10:17:18;;;;;;;31.45;15.83;;;;;;;0.21;74.14;102483.25;1712549;83;25801;-59
2020/12/22 10:19:46;;;;;;;33.75;17.10;;;;;;;0.21;73.84;102480.59;1712510;83;25744;-58
2020/12/22 10:22:14;;;;;;;35.10;17.57;;;;;;;0.19;73.92;102481.07;1712459;83;28572;-59
2020/12/22 10:24:42;;;;;;;35.48;17.65;;;;;;;0.22;73.99;102478.81;1714201;81;25835;-59
2020/12/22 10:27:11;;;;;;;38.33;16.90;;;;;;;0.20;74.03;102480.60;1747909;82;25692;-59
2020/12/22 10:29:39;;;;;;;38.02;16.90;;;;;;;0.21;74.20;102473.09;1747859;82;25672;-59
2020/12/22 10:32:07;;;;;;;35.52;17.55;;;;;;;0.24;74.27;102474.37;1733982;82;25765;-59
2020/12/22 10:34:34;;;;;;;33.70;18.05;;;;;;;0.27;74.04;102461.95;1712507;83;27978;-59
2020/12/22 10:37:03;;;;;;;27.70;15.28;;;;;;;0.30;74.17;102455.28;1712479;83;25697;-59
2020/12/22 10:39:31;;;;;;;33.42;18.25;;;;;;;0.33;73.88;102446.84;1712467;83;25657;-59
2020/12/22 10:41:59;;;;;;;43.25;17.10;;;;;;;0.31;73.61;102445.09;1738004;82;26057;-59
2020/12/22 10:44:27;;;;;;;44.53;18.52;;;;;;;0.33;73.62;102442.87;1724103;82;25736;-59
2020/12/22 10:46:55;;;;;;;33.45;15.85;;;;;;;0.31;73.43;102437.14;1712159;83;27540;-58
2020/12/22 10:49:23;;;;;;;35.52;18.30;;;;;;;0.34;73.40;102445.94;1712093;83;25529;-59
2020/12/22 10:51:53;;;;;;;35.40;17.00;;;;;;;0.33;73.41;102442.44;1712014;83;25760;-59
2020/12/22 10:54:23;;;;;;;33.80;16.57;;;;;;;0.34;73.66;102438.00;1717188;83;25654;-58
2020/12/22 10:56:52;;;;;;;46.15;18.10;;;;;;;0.35;73.53;102443.72;1722525;82;25450;-58
2020/12/22 10:59:20;;;;;;;38.15;16.67;;;;;;;0.38;73.27;102439.23;1722706;83;27983;-58
2020/12/22 11:01:50;;;;;;;38.55;16.57;;;;;;;0.38;73.24;102443.67;1722595;81;25679;-58
2020/12/22 11:04:18;;;;;;;33.35;16.93;;;;;;;0.39;73.15;102447.61;1722741;83;25726;-59
2020/12/22 11:07:06;;;;;;;31.37;15.03;;;;;;;0.42;72.54;102442.70;1722746;83;25733;-58
2020/12/22 11:09:28;;;;;;;44.65;18.07;;;;;;;0.39;72.65;102437.02;1776989;80;25790;-58
2020/12/22 11:11:58;;;;;;;29.65;15.95;;;;;;;0.39;72.69;102437.48;1778264;80;27370;-58
2020/12/22 11:14:26;;;;;;;29.27;15.25;;;;;;;0.39;72.67;102438.80;1778219;80;25819;-59
2020/12/22 11:16:54;;;;;;;30.77;14.93;;;;;;;0.37;72.21;102448.08;1778309;80;25696;-58
2020/12/22 11:19:21;;;;;;;27.60;13.88;;;;;;;0.39;72.64;102439.66;1778187;80;25676;-58
2020/12/22 11:21:49;;;;;;;36.30;15.88;;;;;;;0.40;71.79;102434.80;1787056;79;25716;-58
2020/12/22 11:24:17;;;;;;;27.48;14.40;;;;;;;0.34;71.77;102438.00;1810285;79;27533;-58
2020/12/22 11:26:46;;;;;;;28.73;15.10;;;;;;;0.32;71.68;102438.04;1810146;79;26076;-58
2020/12/22 11:29:15;;;;;;;30.20;14.93;;;;;;;0.34;71.87;102434.92;1810230;79;25718;-58